Aérodrome :
LOGIN :

S'inscrire | Disclaimer

   EN    FR    IT 

 










Légende :    VFR   VFR Marginal   IFR   IFR Intensif   IFR Très Intensif
Visi : 
Plafond : 
>= 8 km
>= 3000ft
5 à 8 km
1000 à 3000 ft
1500m à 5 km
500 à 1000 ft
800 à 1500m
200 à 500 ft
< 800m
< 200 ft
Symboles :   Orages  Brouillard  Fortes neiges  Fortes précipitations  Vent > 20 kt
SIGMETs :   Divers  Orages  Givrage  Turbulence  Onde Orograph.  Cendres Volcan.







- Altitude de l'aérodrome : 218 ft


EGYD - RAF Cranwell

DERNIER METAR :
  • 190727Z 26008KT 8000 4000W BR BKN033 07/07 Q1025 GRN BECMG 9999 NSW BLU

METARs EXPIRÉS :
  • 190650Z 26008KT 2500 BR FEW002 BKN033 06/06 Q1024 YLO1 TEMPO 0200 FG BKN000 RED
  • 190550Z AUTO 23006KT 3500 // NCD 04/03 Q1024
  • 190450Z AUTO 26007KT 4300 // FEW041/// 05/04 Q1024

TAF TAF EGYD
Valide du 19 à 06h jusqu'au 19 à 15h UTC


190632Z 1906/1915 26008KT 5000 BR FEW040
PROB30
TEMPO 1906/1908 0200 FG BKN001
BECMG 1908/1910 9999 NSW
PROB30
TEMPO 1909/1915 SCT015
Pas de NOTAMs connus pour ce terrain.



MET'MAP, la Météo Aéronautique d'un coup d'oeil ! - Copyright ORBIFLY Décembre 2007 - Disclaimer

ORBIFLY MET'MAP TEAM :

Programmation & Développement : Alexandra Zaïnal
Conception & Développement : Baudouin d'Aumeries
Co-Programmation & Développement : Marc-Olivier Méhu
Soutien technique & logistique : Manuel Goepfert

Contact : metmap@orbifly.com




SOURCES & CREDITS :

   NOAA